Time;durP1;ratioP1;P1;durP2;ratioP2;P2;SDS_P1;SDS_P2;PMS_P1;PMS_P2;Temp;Humidity;BMP_temperature;BMP_pressure;BME280_temperature;BME280_humidity;BME280_pressure;Samples;Min_cycle;Max_cycle;Signal;HPM_P1;HPM_P2
2022/01/23 00:00:42;;;;;;;15.35;12.82;;;;;;;;;;5044573;28;20202;-69
2022/01/23 00:03:15;;;;;;;17.20;11.95;;;;;;;;;;5044394;28;20222;-70
2022/01/23 00:05:43;;;;;;;15.32;12.00;;;;;;;;;;5044144;28;20289;-70
2022/01/23 00:08:10;;;;;;;15.93;11.32;;;;;;;;;;5043584;28;20501;-69
2022/01/23 00:10:38;;;;;;;14.60;12.35;;;;;;;;;;5044234;28;20198;-70
2022/01/23 00:13:12;;;;;;;20.42;12.40;;;;;;;;;;5044494;28;20364;-69
2022/01/23 00:18:22;;;;;;;18.02;12.48;;;;;;;;;;5044307;28;20260;-70
2022/01/23 00:20:49;;;;;;;20.02;13.30;;;;;;;;;;5044364;28;20265;-70
2022/01/23 00:23:28;;;;;;;18.33;12.32;;;;;;;;;;5044167;28;20222;-70
2022/01/23 00:31:38;;;;;;;19.15;13.50;;;;;;;;;;4983015;28;20379;-70
2022/01/23 00:34:04;;;;;;;19.88;13.82;;;;;;;;;;5029953;28;20213;-70
2022/01/23 00:36:30;;;;;;;20.10;13.70;;;;;;;;;;5043737;28;20244;-70
2022/01/23 00:38:57;;;;;;;18.10;13.27;;;;;;;;;;5043758;28;20205;-70
2022/01/23 00:41:26;;;;;;;18.77;12.18;;;;;;;;;;5043936;28;20236;-70
2022/01/23 00:43:53;;;;;;;20.25;12.93;;;;;;;;;;5043730;28;20225;-70
2022/01/23 00:46:30;;;;;;;16.83;12.27;;;;;;;;;;5043588;28;20197;-70
2022/01/23 00:49:24;;;;;;;17.02;12.18;;;;;;;;;;5043728;28;20198;-70
2022/01/23 00:51:51;;;;;;;15.70;11.32;;;;;;;;;;5043766;28;20225;-70
2022/01/23 00:54:18;;;;;;;15.30;10.98;;;;;;;;;;5043455;28;20201;-70
2022/01/23 00:56:45;;;;;;;15.70;12.07;;;;;;;;;;5043296;28;20205;-70
2022/01/23 00:59:12;;;;;;;15.95;12.48;;;;;;;;;;5043521;28;20197;-70
2022/01/23 01:01:38;;;;;;;16.73;11.85;;;;;;;;;;5043301;28;20496;-70
2022/01/23 01:04:05;;;;;;;17.17;12.25;;;;;;;;;;5043228;28;20259;-70
2022/01/23 01:06:31;;;;;;;17.65;12.20;;;;;;;;;;5043302;28;20232;-70
2022/01/23 01:09:02;;;;;;;15.10;11.65;;;;;;;;;;5043148;28;20198;-70
2022/01/23 01:11:54;;;;;;;17.40;12.65;;;;;;;;;;5043306;28;20429;-70
2022/01/23 01:14:32;;;;;;;19.30;12.77;;;;;;;;;;5042977;28;20201;-70
2022/01/23 01:17:06;;;;;;;16.17;11.98;;;;;;;;;;5043140;28;20505;-70
2022/01/23 01:30:36;;;;;;;16.58;12.13;;;;;;;;;;5042984;28;20196;-70
2022/01/23 01:33:13;;;;;;;16.17;12.35;;;;;;;;;;5042838;28;20224;-70
2022/01/23 01:35:44;;;;;;;16.08;12.45;;;;;;;;;;5042774;28;20209;-69
2022/01/23 01:38:11;;;;;;;16.98;12.32;;;;;;;;;;5042737;28;20198;-70
2022/01/23 01:40:37;;;;;;;16.75;13.15;;;;;;;;;;5042640;28;20431;-70
2022/01/23 01:43:04;;;;;;;16.15;12.15;;;;;;;;;;5042562;28;20240;-69
2022/01/23 01:45:33;;;;;;;19.13;13.85;;;;;;;;;;5042363;28;20197;-69
2022/01/23 01:48:01;;;;;;;20.15;13.13;;;;;;;;;;5042605;28;20193;-69
2022/01/23 01:50:27;;;;;;;18.58;13.48;;;;;;;;;;5042623;28;20229;-69
2022/01/23 01:52:54;;;;;;;18.52;13.32;;;;;;;;;;5042731;28;20530;-69
2022/01/23 01:55:25;;;;;;;19.13;12.88;;;;;;;;;;5042354;28;20228;-69
2022/01/23 01:57:55;;;;;;;17.77;13.57;;;;;;;;;;5042227;28;20205;-69
2022/01/23 02:00:38;;;;;;;19.33;13.63;;;;;;;;;;5042298;28;20221;-69
2022/01/23 02:08:37;;;;;;;18.10;13.05;;;;;;;;;;5042075;28;20230;-69
2022/01/23 02:11:10;;;;;;;17.48;11.57;;;;;;;;;;5042141;28;20252;-69
2022/01/23 02:13:41;;;;;;;21.23;13.02;;;;;;;;;;5042246;28;20394;-69
2022/01/23 02:16:37;;;;;;;18.50;14.15;;;;;;;;;;5041813;28;20214;-69
2022/01/23 02:52:02;;;;;;;22.48;14.18;;;;;;;;;;5041738;28;20240;-69
2022/01/23 02:54:55;;;;;;;22.00;13.70;;;;;;;;;;5041885;28;20193;-69
2022/01/23 02:57:33;;;;;;;18.52;13.77;;;;;;;;;;5042014;28;20197;-69
2022/01/23 02:59:59;;;;;;;21.40;14.85;;;;;;;;;;5041992;28;20500;-69
2022/01/23 03:02:34;;;;;;;24.60;15.73;;;;;;;;;;5041731;28;20197;-69
2022/01/23 03:05:02;;;;;;;21.02;14.85;;;;;;;;;;5041529;28;20547;-69
2022/01/23 03:10:19;;;;;;;24.48;16.52;;;;;;;;;;5031031;28;20393;-69
2022/01/23 03:15:32;;;;;;;24.40;17.33;;;;;;;;;;5041409;28;20454;-69
2022/01/23 03:26:21;;;;;;;27.15;18.23;;;;;;;;;;5041363;28;20197;-69
2022/01/23 03:29:04;;;;;;;26.92;18.00;;;;;;;;;;5041365;28;20252;-69
2022/01/23 03:31:33;;;;;;;24.58;16.80;;;;;;;;;;5041721;28;20197;-69
2022/01/23 03:33:59;;;;;;;28.42;17.52;;;;;;;;;;5041509;28;20212;-69
2022/01/23 03:36:26;;;;;;;27.15;18.40;;;;;;;;;;5041158;28;20202;-69
2022/01/23 03:38:52;;;;;;;28.55;18.42;;;;;;;;;;5041279;28;20389;-69
2022/01/23 03:41:20;;;;;;;28.80;18.15;;;;;;;;;;5041290;28;20497;-69
2022/01/23 03:43:47;;;;;;;27.17;18.58;;;;;;;;;;5044317;28;20213;-69
2022/01/23 03:46:35;;;;;;;26.90;18.92;;;;;;;;;;5044603;28;20201;-69
2022/01/23 03:51:46;;;;;;;26.83;17.48;;;;;;;;;;5044639;28;20196;-69
2022/01/23 03:54:13;;;;;;;32.17;19.50;;;;;;;;;;5044868;28;20214;-69
2022/01/23 03:56:41;;;;;;;29.95;19.15;;;;;;;;;;5044590;28;20198;-69
2022/01/23 03:59:07;;;;;;;31.52;20.20;;;;;;;;;;5044874;28;20205;-69
2022/01/23 04:01:33;;;;;;;31.90;19.10;;;;;;;;;;5044525;28;20396;-69
2022/01/23 04:04:03;;;;;;;28.13;19.27;;;;;;;;;;5044826;28;20221;-69
2022/01/23 04:06:30;;;;;;;30.33;19.40;;;;;;;;;;5044466;28;20218;-69
2022/01/23 04:08:57;;;;;;;31.40;19.58;;;;;;;;;;5044537;28;20269;-69
2022/01/23 04:11:23;;;;;;;32.95;20.88;;;;;;;;;;5044639;28;20497;-69
2022/01/23 04:13:57;;;;;;;28.52;18.85;;;;;;;;;;5044317;28;20221;-69
2022/01/23 04:16:42;;;;;;;25.13;18.20;;;;;;;;;;5043922;28;20539;-69
2022/01/23 04:19:19;;;;;;;26.13;17.58;;;;;;;;;;5044249;28;20201;-69
2022/01/23 04:33:09;;;;;;;28.35;18.67;;;;;;;;;;5044187;28;20240;-69
2022/01/23 04:45:14;;;;;;;30.98;17.88;;;;;;;;;;5043555;28;20369;-69
2022/01/23 05:00:33;;;;;;;31.90;19.70;;;;;;;;;;5043458;28;20580;-69
2022/01/23 05:03:53;;;;;;;30.45;19.33;;;;;;;;;;5043575;28;20202;-69
2022/01/23 05:06:21;;;;;;;27.02;17.70;;;;;;;;;;5042971;28;20397;-69
2022/01/23 05:08:47;;;;;;;30.88;18.67;;;;;;;;;;5043233;28;20363;-69
2022/01/23 05:11:13;;;;;;;30.70;19.60;;;;;;;;;;5043308;28;20205;-69
2022/01/23 05:13:40;;;;;;;27.50;19.42;;;;;;;;;;5043372;28;20194;-69
2022/01/23 05:16:06;;;;;;;26.65;18.65;;;;;;;;;;5042838;28;20214;-69
2022/01/23 05:18:35;;;;;;;31.40;19.25;;;;;;;;;;5043127;28;20496;-69
2022/01/23 05:21:13;;;;;;;30.48;20.15;;;;;;;;;;5043127;28;20255;-69
2022/01/23 05:23:39;;;;;;;31.27;19.55;;;;;;;;;;5043004;28;20245;-69
2022/01/23 05:26:06;;;;;;;31.05;20.00;;;;;;;;;;5042707;28;20198;-69
2022/01/23 05:28:32;;;;;;;28.67;19.65;;;;;;;;;;5043002;28;20198;-69
2022/01/23 05:30:58;;;;;;;32.45;18.80;;;;;;;;;;5042853;28;20190;-69
2022/01/23 05:33:25;;;;;;;32.50;20.52;;;;;;;;;;5042765;28;20198;-69
2022/01/23 05:35:53;;;;;;;29.23;20.40;;;;;;;;;;5042629;28;20394;-69
2022/01/23 05:38:19;;;;;;;30.65;20.08;;;;;;;;;;5042849;28;20252;-69
2022/01/23 05:40:54;;;;;;;36.50;21.35;;;;;;;;;;5042721;28;20201;-69
2022/01/23 05:43:21;;;;;;;31.08;19.88;;;;;;;;;;5042817;28;20450;-69
2022/01/23 05:45:47;;;;;;;35.00;20.35;;;;;;;;;;5042393;28;20206;-69
2022/01/23 05:48:14;;;;;;;30.42;19.70;;;;;;;;;;5042369;28;20232;-69
2022/01/23 05:50:40;;;;;;;28.75;19.45;;;;;;;;;;5042515;28;20198;-69
2022/01/23 05:53:08;;;;;;;29.42;19.70;;;;;;;;;;5042532;28;20527;-69
2022/01/23 05:55:34;;;;;;;34.13;21.10;;;;;;;;;;5042367;28;20249;-69
2022/01/23 05:58:01;;;;;;;28.67;19.48;;;;;;;;;;5042403;28;20198;-69
2022/01/23 06:00:27;;;;;;;30.10;19.65;;;;;;;;;;5042316;28;20198;-69
2022/01/23 06:02:54;;;;;;;32.33;20.65;;;;;;;;;;5042148;28;20513;-69
2022/01/23 06:05:20;;;;;;;32.25;19.75;;;;;;;;;;5041431;28;20416;-69
2022/01/23 06:07:48;;;;;;;35.08;21.25;;;;;;;;;;5042130;28;20209;-69
2022/01/23 06:10:22;;;;;;;29.25;20.30;;;;;;;;;;5042180;28;20308;-69
2022/01/23 06:12:49;;;;;;;30.40;19.67;;;;;;;;;;5042189;28;20244;-69
2022/01/23 06:15:15;;;;;;;37.08;19.90;;;;;;;;;;5042092;28;20373;-69
2022/01/23 06:17:42;;;;;;;30.27;20.05;;;;;;;;;;5042231;28;20349;-69
2022/01/23 06:20:10;;;;;;;30.23;19.38;;;;;;;;;;5042024;28;20198;-69
2022/01/23 06:22:37;;;;;;;31.65;20.23;;;;;;;;;;5042012;28;20206;-69
2022/01/23 06:25:05;;;;;;;33.75;20.00;;;;;;;;;;5041818;28;20264;-69
2022/01/23 06:27:33;;;;;;;31.88;21.27;;;;;;;;;;5041957;28;20428;-69
2022/01/23 06:30:00;;;;;;;29.58;20.13;;;;;;;;;;5041753;28;20205;-69
2022/01/23 06:32:26;;;;;;;32.47;20.70;;;;;;;;;;5041878;28;20205;-69
2022/01/23 06:34:52;;;;;;;36.22;21.38;;;;;;;;;;5042159;28;20201;-69
2022/01/23 06:37:19;;;;;;;33.20;20.45;;;;;;;;;;5041799;28;20206;-69
2022/01/23 06:39:45;;;;;;;33.72;21.55;;;;;;;;;;5042017;28;20496;-69
2022/01/23 06:42:12;;;;;;;35.75;21.75;;;;;;;;;;5041961;28;20204;-69
2022/01/23 06:44:40;;;;;;;31.45;20.13;;;;;;;;;;5041749;28;20217;-69
2022/01/23 06:47:07;;;;;;;33.95;21.42;;;;;;;;;;5041996;28;20269;-69
2022/01/23 06:49:33;;;;;;;32.42;20.27;;;;;;;;;;5041848;28;20497;-69
2022/01/23 06:52:00;;;;;;;29.58;20.15;;;;;;;;;;5041905;28;20213;-69
2022/01/23 06:54:27;;;;;;;35.85;20.33;;;;;;;;;;5041731;28;20201;-69
2022/01/23 06:56:55;;;;;;;32.00;20.13;;;;;;;;;;5042027;28;20381;-69
2022/01/23 06:59:21;;;;;;;31.13;20.55;;;;;;;;;;5041592;28;20205;-69
2022/01/23 07:01:49;;;;;;;31.17;19.83;;;;;;;;;;5041794;28;20393;-69
2022/01/23 07:04:15;;;;;;;31.40;21.45;;;;;;;;;;5041724;28;20532;-69
2022/01/23 07:06:41;;;;;;;29.23;19.52;;;;;;;;;;5041328;28;20324;-69
2022/01/23 07:09:08;;;;;;;33.00;21.40;;;;;;;;;;5041836;28;20221;-69
2022/01/23 07:11:35;;;;;;;31.00;20.42;;;;;;;;;;5041547;28;20193;-69
2022/01/23 07:14:01;;;;;;;30.90;21.33;;;;;;;;;;5041556;28;20574;-69
2022/01/23 07:16:27;;;;;;;31.67;20.67;;;;;;;;;;5042183;28;20205;-69
2022/01/23 07:18:55;;;;;;;32.25;20.70;;;;;;;;;;5045436;28;20197;-69
2022/01/23 07:21:22;;;;;;;34.80;21.02;;;;;;;;;;5045373;28;20209;-69
2022/01/23 07:23:51;;;;;;;33.35;20.75;;;;;;;;;;5045365;28;20190;-69
2022/01/23 07:26:20;;;;;;;30.00;20.20;;;;;;;;;;5044959;28;20197;-69
2022/01/23 07:28:47;;;;;;;33.65;21.23;;;;;;;;;;5045385;28;20197;-69
2022/01/23 07:31:30;;;;;;;33.20;20.95;;;;;;;;;;5045048;28;20198;-69
2022/01/23 07:33:58;;;;;;;34.42;21.90;;;;;;;;;;5045197;28;20204;-69
2022/01/23 07:36:25;;;;;;;35.20;20.83;;;;;;;;;;5045269;28;20341;-69
2022/01/23 07:38:51;;;;;;;30.20;20.52;;;;;;;;;;5044909;28;20505;-69
2022/01/23 07:41:17;;;;;;;32.88;21.42;;;;;;;;;;5044928;28;20205;-69
2022/01/23 07:43:44;;;;;;;37.72;23.35;;;;;;;;;;5044951;28;20373;-69
2022/01/23 07:46:10;;;;;;;33.03;21.42;;;;;;;;;;5044566;28;20217;-69
2022/01/23 07:48:37;;;;;;;36.70;22.90;;;;;;;;;;5044782;28;20392;-69
2022/01/23 07:51:04;;;;;;;35.88;22.23;;;;;;;;;;5045227;28;20198;-69
2022/01/23 07:53:31;;;;;;;34.15;21.58;;;;;;;;;;5044671;28;20198;-69
2022/01/23 07:55:57;;;;;;;36.03;21.75;;;;;;;;;;5044736;28;20194;-69
2022/01/23 07:58:24;;;;;;;31.83;20.90;;;;;;;;;;5044595;28;20281;-69
2022/01/23 08:00:50;;;;;;;33.63;22.10;;;;;;;;;;5044567;28;20198;-69
2022/01/23 08:03:17;;;;;;;37.38;21.98;;;;;;;;;;5044912;28;20212;-69
2022/01/23 08:05:43;;;;;;;38.17;22.98;;;;;;;;;;5044117;28;20240;-69
2022/01/23 08:08:11;;;;;;;34.20;21.48;;;;;;;;;;5044292;28;20201;-69
2022/01/23 08:10:38;;;;;;;37.53;21.85;;;;;;;;;;5044402;28;20207;-69
2022/01/23 08:13:05;;;;;;;36.67;21.88;;;;;;;;;;5044456;28;20198;-69
2022/01/23 08:15:31;;;;;;;34.72;22.20;;;;;;;;;;5044223;28;20202;-69
2022/01/23 08:17:59;;;;;;;34.28;21.02;;;;;;;;;;5044317;28;20197;-69
2022/01/23 08:20:26;;;;;;;32.75;20.92;;;;;;;;;;5044086;28;20432;-69
2022/01/23 08:22:52;;;;;;;36.08;21.33;;;;;;;;;;5044263;28;20197;-69
2022/01/23 08:25:20;;;;;;;32.97;21.20;;;;;;;;;;5043998;28;20218;-69
2022/01/23 08:27:46;;;;;;;32.47;21.35;;;;;;;;;;5043319;28;20198;-69
2022/01/23 08:30:13;;;;;;;35.67;21.98;;;;;;;;;;5044173;28;20197;-69
2022/01/23 08:32:39;;;;;;;31.30;20.27;;;;;;;;;;5044056;28;20198;-69
2022/01/23 08:35:06;;;;;;;36.70;21.75;;;;;;;;;;5043819;28;20193;-69
2022/01/23 08:37:33;;;;;;;36.03;20.13;;;;;;;;;;5043820;28;20205;-69
2022/01/23 08:39:59;;;;;;;37.03;20.90;;;;;;;;;;5043809;28;20197;-69
2022/01/23 08:42:27;;;;;;;34.72;21.98;;;;;;;;;;5043819;28;20202;-69
2022/01/23 08:44:54;;;;;;;41.75;23.00;;;;;;;;;;5043763;28;20533;-69
2022/01/23 08:47:22;;;;;;;36.20;22.65;;;;;;;;;;5043396;28;20198;-69
2022/01/23 08:49:49;;;;;;;35.85;22.15;;;;;;;;;;5044047;28;20272;-69
2022/01/23 08:52:17;;;;;;;35.17;22.00;;;;;;;;;;5043810;28;20198;-69
2022/01/23 08:54:45;;;;;;;34.90;21.65;;;;;;;;;;5043733;28;20577;-69
2022/01/23 08:57:11;;;;;;;34.17;21.20;;;;;;;;;;5043483;28;20198;-69
2022/01/23 08:59:39;;;;;;;35.08;21.33;;;;;;;;;;5043589;28;20198;-69
2022/01/23 09:02:06;;;;;;;42.10;21.33;;;;;;;;;;5043783;28;20213;-69
2022/01/23 09:04:32;;;;;;;37.28;21.48;;;;;;;;;;5043290;28;20204;-69
2022/01/23 09:06:58;;;;;;;35.70;22.80;;;;;;;;;;5043237;28;20362;-69
2022/01/23 09:09:30;;;;;;;38.35;23.10;;;;;;;;;;5043314;28;20387;-69
2022/01/23 09:12:01;;;;;;;39.65;23.42;;;;;;;;;;5043371;28;20401;-69
2022/01/23 09:14:27;;;;;;;37.20;23.05;;;;;;;;;;5042922;28;20198;-70
2022/01/23 09:16:55;;;;;;;39.83;24.83;;;;;;;;;;5042878;28;20228;-69
2022/01/23 09:19:22;;;;;;;37.55;24.05;;;;;;;;;;5043071;28;20273;-69
2022/01/23 09:21:50;;;;;;;37.67;23.63;;;;;;;;;;5043210;28;20205;-69
2022/01/23 09:24:16;;;;;;;35.35;21.67;;;;;;;;;;5043077;28;20393;-69
2022/01/23 09:26:45;;;;;;;37.72;21.95;;;;;;;;;;5042781;28;20419;-69
2022/01/23 09:29:17;;;;;;;37.78;21.77;;;;;;;;;;5042823;28;20197;-69
2022/01/23 09:31:49;;;;;;;36.45;20.80;;;;;;;;;;5042947;28;20202;-69
2022/01/23 09:34:17;;;;;;;34.92;22.30;;;;;;;;;;5042914;28;20268;-69
2022/01/23 09:36:44;;;;;;;36.40;21.02;;;;;;;;;;5042636;28;20201;-69
2022/01/23 09:39:14;;;;;;;32.50;21.63;;;;;;;;;;5042675;28;20205;-69
2022/01/23 09:41:42;;;;;;;36.15;20.58;;;;;;;;;;5042581;28;20286;-69
2022/01/23 09:44:09;;;;;;;39.05;21.50;;;;;;;;;;5042714;28;20628;-69
2022/01/23 09:46:36;;;;;;;31.00;21.85;;;;;;;;;;5042661;28;20222;-69
2022/01/23 09:49:03;;;;;;;30.90;19.88;;;;;;;;;;5042524;28;20201;-69
2022/01/23 09:51:32;;;;;;;33.38;21.17;;;;;;;;;;5042548;28;20465;-69
2022/01/23 09:53:58;;;;;;;33.00;20.85;;;;;;;;;;5042359;28;20229;-69
2022/01/23 09:56:27;;;;;;;36.00;21.08;;;;;;;;;;5042634;28;20208;-69
2022/01/23 09:58:54;;;;;;;31.75;20.92;;;;;;;;;;5042531;28;20244;-69
2022/01/23 10:01:22;;;;;;;29.05;20.52;;;;;;;;;;5042549;28;20197;-69
2022/01/23 10:03:49;;;;;;;34.78;21.00;;;;;;;;;;5042322;28;20225;-69
2022/01/23 10:06:16;;;;;;;32.83;21.75;;;;;;;;;;5041953;28;20229;-69
2022/01/23 10:08:44;;;;;;;34.10;20.75;;;;;;;;;;5042213;28;20197;-69
2022/01/23 10:11:13;;;;;;;34.78;20.90;;;;;;;;;;5042370;28;20267;-69
2022/01/23 10:13:40;;;;;;;35.65;21.05;;;;;;;;;;5042116;28;20206;-69
2022/01/23 10:16:06;;;;;;;32.70;20.02;;;;;;;;;;5041824;28;20201;-69
2022/01/23 10:18:33;;;;;;;35.50;21.85;;;;;;;;;;5042547;28;20197;-69
2022/01/23 10:21:01;;;;;;;34.78;20.85;;;;;;;;;;5042148;28;20236;-69
2022/01/23 10:23:28;;;;;;;33.13;19.65;;;;;;;;;;5041909;28;20205;-69
2022/01/23 10:25:56;;;;;;;32.78;20.83;;;;;;;;;;5041645;28;20217;-69
2022/01/23 10:28:28;;;;;;;33.40;20.27;;;;;;;;;;5041855;28;20201;-69
2022/01/23 10:30:56;;;;;;;31.67;20.33;;;;;;;;;;5042183;28;20505;-69
2022/01/23 10:33:24;;;;;;;34.22;20.90;;;;;;;;;;5041947;28;20245;-69
2022/01/23 10:35:58;;;;;;;33.50;21.48;;;;;;;;;;5041709;28;20201;-69
2022/01/23 10:38:25;;;;;;;34.35;20.38;;;;;;;;;;5042049;28;20384;-69
2022/01/23 10:41:05;;;;;;;29.33;18.20;;;;;;;;;;5042041;28;20504;-69
2022/01/23 10:46:55;;;;;;;28.13;19.38;;;;;;;;;;4985550;28;20224;-69
2022/01/23 10:49:22;;;;;;;32.05;20.20;;;;;;;;;;5042294;28;20495;-69
2022/01/23 10:51:49;;;;;;;34.35;19.42;;;;;;;;;;5043449;28;20197;-69
2022/01/23 10:54:17;;;;;;;29.58;17.88;;;;;;;;;;5045982;28;20201;-69
2022/01/23 10:57:04;;;;;;;27.33;18.17;;;;;;;;;;5045507;28;20186;-69
2022/01/23 10:59:41;;;;;;;33.85;18.55;;;;;;;;;;5045722;28;20212;-69
2022/01/23 11:02:08;;;;;;;29.42;18.42;;;;;;;;;;5045714;28;20197;-69
2022/01/23 11:04:35;;;;;;;25.23;17.33;;;;;;;;;;5045436;28;20198;-69
2022/01/23 11:07:02;;;;;;;26.08;17.25;;;;;;;;;;5044205;28;20225;-69
2022/01/23 11:09:31;;;;;;;29.85;19.92;;;;;;;;;;5044635;28;20396;-69
2022/01/23 11:12:03;;;;;;;31.75;20.52;;;;;;;;;;5045581;28;20197;-69
2022/01/23 11:17:25;;;;;;;27.77;19.85;;;;;;;;;;5045241;28;20192;-69
2022/01/23 11:19:53;;;;;;;30.35;20.50;;;;;;;;;;5045785;28;20547;-69
2022/01/23 11:22:21;;;;;;;27.13;19.02;;;;;;;;;;5045311;28;20205;-69
2022/01/23 11:24:48;;;;;;;31.33;20.67;;;;;;;;;;5045298;28;20198;-69
2022/01/23 11:27:15;;;;;;;30.33;20.05;;;;;;;;;;5045063;28;20411;-69
2022/01/23 11:29:59;;;;;;;35.63;21.02;;;;;;;;;;5045172;28;20197;-69
2022/01/23 11:32:28;;;;;;;29.73;20.40;;;;;;;;;;5045509;28;20243;-69
2022/01/23 11:34:59;;;;;;;36.15;19.83;;;;;;;;;;5045196;28;20204;-70
2022/01/23 11:37:26;;;;;;;29.45;20.65;;;;;;;;;;5044915;28;20205;-69
2022/01/23 11:39:58;;;;;;;29.88;18.85;;;;;;;;;;5045169;28;20568;-69
2022/01/23 11:51:05;;;;;;;30.77;19.25;;;;;;;;;;5044852;28;20197;-69
2022/01/23 11:53:49;;;;;;;39.65;23.40;;;;;;;;;;5044897;28;20264;-69
2022/01/23 11:56:38;;;;;;;28.88;18.85;;;;;;;;;;5044622;28;20265;-69
2022/01/23 11:59:24;;;;;;;26.23;18.58;;;;;;;;;;5044954;28;20245;-69
2022/01/23 12:02:05;;;;;;;23.15;16.92;;;;;;;;;;5044594;28;20265;-69
2022/01/23 12:04:34;;;;;;;22.40;15.95;;;;;;;;;;5043373;28;20243;-69
2022/01/23 12:07:20;;;;;;;21.38;14.52;;;;;;;;;;5044127;28;20226;-69
2022/01/23 12:10:01;;;;;;;21.25;15.07;;;;;;;;;;5044390;28;20225;-69
2022/01/23 12:12:36;;;;;;;24.80;14.05;;;;;;;;;;5044277;28;20198;-61
2022/01/23 12:18:11;;;;;;;18.63;13.20;;;;;;;;;;5044339;28;20185;-61
2022/01/23 12:20:40;;;;;;;19.02;13.13;;;;;;;;;;5044258;28;20205;-61
2022/01/23 12:23:06;;;;;;;17.20;12.52;;;;;;;;;;5044280;28;20260;-61
2022/01/23 12:25:40;;;;;;;17.35;12.55;;;;;;;;;;5043971;28;20397;-61
2022/01/23 12:28:14;;;;;;;19.02;13.23;;;;;;;;;;5044092;28;20197;-61
2022/01/23 12:30:42;;;;;;;15.98;12.77;;;;;;;;;;5043979;28;20198;-61
2022/01/23 12:33:32;;;;;;;17.40;12.23;;;;;;;;;;5043950;28;20204;-61
2022/01/23 12:36:05;;;;;;;15.75;12.45;;;;;;;;;;5043985;28;20441;-62
2022/01/23 12:38:34;;;;;;;14.85;12.15;;;;;;;;;;5043949;28;20244;-62
2022/01/23 12:41:14;;;;;;;17.10;12.57;;;;;;;;;;5044377;28;20364;-63
2022/01/23 12:43:41;;;;;;;15.93;12.10;;;;;;;;;;5043849;28;20388;-63
2022/01/23 12:46:08;;;;;;;16.40;11.98;;;;;;;;;;5043156;28;20237;-63
2022/01/23 12:48:39;;;;;;;17.02;12.30;;;;;;;;;;5044257;28;20204;-63
2022/01/23 12:51:08;;;;;;;13.80;11.10;;;;;;;;;;5043542;28;20206;-63
2022/01/23 12:53:38;;;;;;;14.90;11.20;;;;;;;;;;5043481;28;20571;-63
2022/01/23 12:56:06;;;;;;;15.10;11.50;;;;;;;;;;5043515;28;20233;-63
2022/01/23 12:58:33;;;;;;;16.90;12.27;;;;;;;;;;5043651;28;20267;-63
2022/01/23 13:01:00;;;;;;;15.27;11.43;;;;;;;;;;5043500;28;20277;-63
2022/01/23 13:03:27;;;;;;;16.17;11.40;;;;;;;;;;5043863;28;20276;-63
2022/01/23 13:05:53;;;;;;;14.40;11.75;;;;;;;;;;5042952;28;20218;-63
2022/01/23 13:08:25;;;;;;;11.63;8.52;;;;;;;;;;5043392;28;20274;-63
2022/01/23 13:11:19;;;;;;;6.63;6.03;;;;;;;;;;5043462;28;20198;-63
2022/01/23 13:13:52;;;;;;;5.63;5.13;;;;;;;;;;5042960;28;20273;-63
2022/01/23 13:16:29;;;;;;;4.50;4.20;;;;;;;;;;5042783;28;20268;-63
2022/01/23 13:30:34;;;;;;;2.50;2.30;;;;;;;;;;4911815;28;20191;-63
2022/01/23 13:33:04;;;;;;;3.35;3.05;;;;;;;;;;5019605;28;20560;-63
2022/01/23 13:35:36;;;;;;;2.53;2.33;;;;;;;;;;5042515;28;20236;-63
2022/01/23 13:38:09;;;;;;;2.42;2.33;;;;;;;;;;5042683;28;20198;-64
2022/01/23 13:40:40;;;;;;;1.80;1.80;;;;;;;;;;5042703;28;20197;-63
2022/01/23 13:51:42;;;;;;;2.47;2.28;;;;;;;;;;5018211;28;20196;-62
2022/01/23 13:57:32;;;;;;;1.85;1.75;;;;;;;;;;5042703;28;20416;-62
2022/01/23 13:59:55;;;;;;;2.00;2.00;;;;;;;;;;5042253;28;20265;-62
2022/01/23 14:02:23;;;;;;;2.80;2.67;;;;;;;;;;5042296;28;20206;-63
2022/01/23 14:04:51;;;;;;;2.95;2.75;;;;;;;;;;5042327;28;20221;-61
2022/01/23 14:07:19;;;;;;;2.80;2.65;;;;;;;;;;5041965;28;20217;-62
2022/01/23 14:09:46;;;;;;;2.90;2.72;;;;;;;;;;5042221;28;20496;-62
2022/01/23 14:12:15;;;;;;;3.80;3.50;;;;;;;;;;5042174;28;20220;-62
2022/01/23 14:14:55;;;;;;;3.95;3.75;;;;;;;;;;5041859;28;20296;-62
2022/01/23 14:17:23;;;;;;;4.28;3.97;;;;;;;;;;5041949;28;20194;-62
2022/01/23 14:19:57;;;;;;;4.82;4.43;;;;;;;;;;5042082;28;20408;-62
2022/01/23 14:22:26;;;;;;;5.10;4.70;;;;;;;;;;5042024;28;20268;-62
2022/01/23 14:24:53;;;;;;;4.80;4.50;;;;;;;;;;5041950;28;20198;-62
2022/01/23 14:27:21;;;;;;;4.88;4.40;;;;;;;;;;5040931;28;20613;-62
2022/01/23 14:29:49;;;;;;;4.75;4.30;;;;;;;;;;5042059;28;20455;-62
2022/01/23 14:32:20;;;;;;;5.43;4.90;;;;;;;;;;5042053;28;20432;-63
2022/01/23 14:34:47;;;;;;;5.40;4.90;;;;;;;;;;5042063;28;20246;-62
2022/01/23 14:37:14;;;;;;;4.60;4.20;;;;;;;;;;5041625;28;20504;-63
2022/01/23 14:39:40;;;;;;;5.28;4.82;;;;;;;;;;5041791;28;20205;-62
2022/01/23 14:42:14;;;;;;;4.72;4.43;;;;;;;;;;5041825;28;20272;-63
2022/01/23 14:44:42;;;;;;;5.75;5.15;;;;;;;;;;5042220;28;20206;-62
2022/01/23 14:47:09;;;;;;;6.85;5.40;;;;;;;;;;5041481;28;20236;-62
2022/01/23 14:49:37;;;;;;;5.40;4.90;;;;;;;;;;5041837;28;20577;-62
2022/01/23 14:52:09;;;;;;;6.10;5.47;;;;;;;;;;5041538;28;20204;-62
2022/01/23 14:54:35;;;;;;;6.30;5.45;;;;;;;;;;5041898;28;20201;-62
2022/01/23 14:57:03;;;;;;;5.38;4.97;;;;;;;;;;5041580;28;20362;-62
2022/01/23 14:59:30;;;;;;;4.90;4.50;;;;;;;;;;5041606;28;20248;-62
2022/01/23 15:01:59;;;;;;;5.60;4.97;;;;;;;;;;5041984;28;20198;-64
2022/01/23 15:04:26;;;;;;;5.82;5.15;;;;;;;;;;5041476;28;20198;-62
2022/01/23 15:06:53;;;;;;;4.97;4.55;;;;;;;;;;5041379;28;20513;-63
2022/01/23 15:09:20;;;;;;;5.50;4.90;;;;;;;;;;5041790;28;20564;-63
2022/01/23 15:11:47;;;;;;;5.05;4.65;;;;;;;;;;5041356;28;20194;-63
2022/01/23 15:14:13;;;;;;;5.00;4.60;;;;;;;;;;5041598;28;20685;-63
2022/01/23 15:16:40;;;;;;;4.35;4.05;;;;;;;;;;5041222;28;20202;-63
2022/01/23 15:19:09;;;;;;;4.78;4.22;;;;;;;;;;5041473;28;20505;-64
2022/01/23 15:21:35;;;;;;;5.47;4.07;;;;;;;;;;5041328;28;20193;-64
2022/01/23 15:24:02;;;;;;;4.20;3.90;;;;;;;;;;5041539;28;20206;-64
2022/01/23 15:26:30;;;;;;;4.80;4.00;;;;;;;;;;5041299;28;20525;-64
2022/01/23 15:28:56;;;;;;;4.72;4.32;;;;;;;;;;5041427;28;20230;-62
2022/01/23 15:31:23;;;;;;;4.18;3.85;;;;;;;;;;5041436;28;20480;-62
2022/01/23 15:33:50;;;;;;;4.25;3.95;;;;;;;;;;5041400;28;20198;-63
2022/01/23 15:36:17;;;;;;;4.63;4.22;;;;;;;;;;5040878;28;20212;-63
2022/01/23 15:38:46;;;;;;;4.15;3.75;;;;;;;;;;5044259;28;20205;-63
2022/01/23 15:41:13;;;;;;;3.75;3.45;;;;;;;;;;5044997;28;20205;-63
2022/01/23 15:43:39;;;;;;;3.75;3.55;;;;;;;;;;5044986;28;20198;-63
2022/01/23 15:46:07;;;;;;;3.60;3.30;;;;;;;;;;5044604;28;20197;-65
2022/01/23 15:48:33;;;;;;;3.45;3.25;;;;;;;;;;5044946;28;20237;-63
2022/01/23 15:51:00;;;;;;;3.72;3.08;;;;;;;;;;5044800;28;20198;-63
2022/01/23 15:53:28;;;;;;;3.38;3.08;;;;;;;;;;5044873;28;20396;-63
2022/01/23 15:55:55;;;;;;;3.47;3.28;;;;;;;;;;5044693;28;20243;-63
2022/01/23 15:58:21;;;;;;;3.10;2.90;;;;;;;;;;5045066;28;20197;-63
2022/01/23 16:00:48;;;;;;;3.58;3.00;;;;;;;;;;5044464;28;20244;-62
2022/01/23 16:03:14;;;;;;;3.75;3.45;;;;;;;;;;5044714;28;20209;-63
2022/01/23 16:05:41;;;;;;;3.13;2.92;;;;;;;;;;5044694;28;20357;-63
2022/01/23 16:08:07;;;;;;;4.25;3.08;;;;;;;;;;5044371;28;20225;-64
2022/01/23 16:10:36;;;;;;;3.10;2.90;;;;;;;;;;5044437;28;20212;-62
2022/01/23 16:13:02;;;;;;;3.25;3.05;;;;;;;;;;5044349;28;20204;-63
2022/01/23 16:15:29;;;;;;;3.38;3.10;;;;;;;;;;5043947;28;20228;-62
2022/01/23 16:17:56;;;;;;;3.13;2.92;;;;;;;;;;5044480;28;20215;-63
2022/01/23 16:20:22;;;;;;;3.08;2.95;;;;;;;;;;5044324;28;20269;-64
2022/01/23 16:22:49;;;;;;;4.13;3.20;;;;;;;;;;5044343;28;20497;-63
2022/01/23 16:25:18;;;;;;;3.60;3.30;;;;;;;;;;5043597;28;20480;-69
2022/01/23 16:27:46;;;;;;;2.92;2.83;;;;;;;;;;5043950;28;20263;-69
2022/01/23 16:30:13;;;;;;;3.03;2.83;;;;;;;;;;5043983;28;21091;-69
2022/01/23 16:32:42;;;;;;;3.78;2.95;;;;;;;;;;5044077;28;20193;-69
2022/01/23 16:35:12;;;;;;;3.63;3.33;;;;;;;;;;5044083;28;20205;-69
2022/01/23 16:37:39;;;;;;;3.28;3.08;;;;;;;;;;5043870;28;20225;-69
2022/01/23 16:40:06;;;;;;;3.80;3.50;;;;;;;;;;5044240;28;20386;-69
2022/01/23 16:42:32;;;;;;;3.42;3.22;;;;;;;;;;5043806;28;20245;-68
2022/01/23 16:45:00;;;;;;;3.30;3.00;;;;;;;;;;5043827;28;20198;-68
2022/01/23 16:47:26;;;;;;;3.25;3.08;;;;;;;;;;5043443;28;20230;-69
2022/01/23 16:49:53;;;;;;;3.35;3.05;;;;;;;;;;5043109;28;20197;-69
2022/01/23 16:52:20;;;;;;;3.25;3.05;;;;;;;;;;5043677;28;20198;-69
2022/01/23 16:54:47;;;;;;;2.80;2.60;;;;;;;;;;5044148;28;20497;-69
2022/01/23 16:57:14;;;;;;;3.25;3.05;;;;;;;;;;5043353;28;20281;-69
2022/01/23 16:59:41;;;;;;;2.70;2.60;;;;;;;;;;5043421;28;20205;-69
2022/01/23 17:02:09;;;;;;;2.70;2.60;;;;;;;;;;5043427;28;20217;-69
2022/01/23 17:04:35;;;;;;;2.92;2.72;;;;;;;;;;5043555;28;20269;-69